createdAt,value
2022-12-23T00:01:04.791Z,94414.91
2022-12-23T00:03:31.621Z,94405.41
2022-12-23T00:05:58.057Z,94405.09
2022-12-23T00:08:26.760Z,94403.28
2022-12-23T00:10:57.824Z,94418.81
2022-12-23T00:13:24.283Z,94406.22
2022-12-23T00:15:51.305Z,94417.81
2022-12-23T00:18:17.807Z,94407.31
2022-12-23T00:20:44.258Z,94408.00
2022-12-23T00:23:11.284Z,94417.78
2022-12-23T00:25:39.310Z,94412.09
2022-12-23T00:28:05.794Z,94416.41
2022-12-23T00:30:32.216Z,94420.69
2022-12-23T00:33:06.044Z,94396.47
2022-12-23T00:35:33.168Z,94395.00
2022-12-23T00:37:59.579Z,94389.97
2022-12-23T00:40:26.283Z,94392.41
2022-12-23T00:42:52.614Z,94390.56
2022-12-23T00:45:21.329Z,94411.56
2022-12-23T00:47:47.902Z,94409.72
2022-12-23T00:50:16.457Z,94411.72
2022-12-23T00:52:42.825Z,94424.75
2022-12-23T00:55:09.193Z,94421.13
2022-12-23T00:57:39.054Z,94422.81
2022-12-23T01:00:05.473Z,94435.69
2022-12-23T01:02:32.465Z,94431.47
2022-12-23T01:05:10.460Z,94432.31
2022-12-23T01:07:37.197Z,94422.03
2022-12-23T01:10:03.886Z,94418.81
2022-12-23T01:12:30.879Z,94404.56
2022-12-23T01:15:08.971Z,94415.81
2022-12-23T01:17:35.583Z,94409.09
2022-12-23T01:20:02.065Z,94409.88
2022-12-23T01:22:28.549Z,94400.94
2022-12-23T01:24:55.176Z,94406.25
2022-12-23T01:27:24.075Z,94412.56
2022-12-23T01:29:53.033Z,94424.19
2022-12-23T01:32:19.582Z,94430.13
2022-12-23T01:34:45.959Z,94444.19
2022-12-23T01:37:12.664Z,94446.44
2022-12-23T01:39:39.083Z,94447.44
2022-12-23T01:42:07.560Z,94451.34
2022-12-23T01:44:34.011Z,94466.63
2022-12-23T01:47:00.685Z,94458.06
2022-12-23T01:49:27.201Z,94455.41
2022-12-23T01:51:56.871Z,94457.59
2022-12-23T01:54:26.034Z,94459.09
2022-12-23T01:56:52.531Z,94451.75
2022-12-23T01:59:19.042Z,94451.69
2022-12-23T02:01:45.811Z,94448.66
2022-12-23T02:04:12.399Z,94438.69
2022-12-23T02:06:43.341Z,94444.34
2022-12-23T02:09:09.915Z,94440.72
2022-12-23T02:11:36.417Z,94436.06
2022-12-23T02:14:05.750Z,94427.47
2022-12-23T02:16:33.190Z,94435.13
2022-12-23T02:18:59.711Z,94431.28
2022-12-23T02:21:26.166Z,94435.78
2022-12-23T02:23:53.071Z,94436.41
2022-12-23T02:26:19.986Z,94439.91
2022-12-23T02:28:47.136Z,94432.78
2022-12-23T02:31:13.688Z,94435.66
2022-12-23T02:33:40.320Z,94435.63
2022-12-23T02:36:06.676Z,94441.34
2022-12-23T02:38:35.629Z,94443.81
2022-12-23T02:41:02.034Z,94440.97
2022-12-23T02:43:28.743Z,94443.63
2022-12-23T02:45:55.251Z,94448.34
2022-12-23T02:48:21.631Z,94453.25
2022-12-23T02:50:48.067Z,94461.00
2022-12-23T02:53:17.296Z,94465.50
2022-12-23T02:55:45.693Z,94454.25
2022-12-23T02:58:12.561Z,94463.03
2022-12-23T03:00:38.990Z,94463.88
2022-12-23T03:03:05.555Z,94466.34
2022-12-23T03:05:32.194Z,94458.56
2022-12-23T03:07:58.724Z,94458.38
2022-12-23T03:10:27.739Z,94459.78
2022-12-23T03:12:54.179Z,94469.59
2022-12-23T03:15:20.535Z,94465.69
2022-12-23T03:17:49.183Z,94471.59
2022-12-23T03:20:18.003Z,94469.34
2022-12-23T03:22:44.339Z,94472.41
2022-12-23T03:25:11.168Z,94469.78
2022-12-23T03:27:37.623Z,94463.00
2022-12-23T03:30:04.323Z,94463.22
2022-12-23T03:32:31.051Z,94468.31
2022-12-23T03:34:59.480Z,94469.94
2022-12-23T03:40:15.943Z,94461.75
2022-12-23T03:42:42.643Z,94465.59
2022-12-23T03:45:37.632Z,94458.06
2022-12-23T03:48:03.826Z,94462.16
2022-12-23T03:50:31.304Z,94459.72
2022-12-23T03:52:58.089Z,94448.50
2022-12-23T03:55:24.975Z,94445.06
2022-12-23T03:57:51.535Z,94447.75
2022-12-23T04:00:18.002Z,94450.22
2022-12-23T04:02:45.126Z,94447.53
2022-12-23T04:05:12.123Z,94440.59
2022-12-23T04:07:38.606Z,94435.91
2022-12-23T04:10:05.520Z,94425.13
2022-12-23T04:12:32.202Z,94441.25
2022-12-23T04:14:58.772Z,94436.13
2022-12-23T04:17:32.377Z,94445.75
2022-12-23T04:19:58.966Z,94447.22
2022-12-23T04:22:25.665Z,94437.38
2022-12-23T04:24:52.262Z,94446.38
2022-12-23T04:27:18.852Z,94442.72
2022-12-23T04:29:45.244Z,94438.03
2022-12-23T04:32:11.659Z,94441.91
2022-12-23T04:34:38.679Z,94437.81
2022-12-23T04:37:05.287Z,94441.50
2022-12-23T04:39:32.673Z,94447.63
2022-12-23T04:42:01.957Z,94445.56
2022-12-23T04:44:28.333Z,94440.28
2022-12-23T04:46:59.265Z,94448.03
2022-12-23T04:49:25.669Z,94443.09
2022-12-23T04:51:52.340Z,94450.84
2022-12-23T04:54:27.604Z,94445.34
2022-12-23T04:56:54.530Z,94454.09
2022-12-23T04:59:21.670Z,94460.63
2022-12-23T05:01:50.376Z,94465.53
2022-12-23T05:04:17.189Z,94457.16
2022-12-23T05:06:43.701Z,94459.16
2022-12-23T05:09:10.261Z,94478.91
2022-12-23T05:11:41.862Z,94456.47
2022-12-23T05:14:08.958Z,94466.88
2022-12-23T05:16:35.587Z,94474.22
2022-12-23T05:19:01.989Z,94467.50
2022-12-23T05:21:28.730Z,94471.13
2022-12-23T05:23:55.777Z,94463.97
2022-12-23T05:26:23.226Z,94464.94
2022-12-23T05:28:50.659Z,94451.69
2022-12-23T05:31:17.598Z,94440.03
2022-12-23T05:33:45.134Z,94434.91
2022-12-23T05:36:12.057Z,94438.94
2022-12-23T05:38:38.613Z,94435.50
2022-12-23T05:41:05.007Z,94435.09
2022-12-23T05:43:33.991Z,94446.09
2022-12-23T05:46:00.871Z,94456.94
2022-12-23T05:48:27.676Z,94453.31
2022-12-23T05:50:54.083Z,94461.09
2022-12-23T05:53:24.808Z,94459.91
2022-12-23T05:55:51.184Z,94460.09
2022-12-23T05:58:17.648Z,94468.66
2022-12-23T06:00:44.069Z,94468.41
2022-12-23T06:03:11.124Z,94459.63
2022-12-23T06:05:38.143Z,94470.25
2022-12-23T06:08:04.505Z,94464.28
2022-12-23T06:10:31.221Z,94465.28
2022-12-23T06:12:58.133Z,94466.09
2022-12-23T06:15:24.992Z,94463.25
2022-12-23T06:17:51.970Z,94453.44
2022-12-23T06:20:20.962Z,94452.22
2022-12-23T06:22:48.335Z,94463.69
2022-12-23T06:25:14.749Z,94468.38
2022-12-23T06:27:41.224Z,94467.13
2022-12-23T06:30:07.871Z,94462.88
2022-12-23T06:32:38.754Z,94454.31
2022-12-23T06:35:05.460Z,94452.47
2022-12-23T06:37:31.852Z,94457.56
2022-12-23T06:39:58.364Z,94458.56
2022-12-23T06:42:25.068Z,94462.84
2022-12-23T06:44:51.710Z,94468.59
2022-12-23T06:47:20.995Z,94476.66
2022-12-23T06:49:47.397Z,94465.06
2022-12-23T06:52:13.774Z,94470.19
2022-12-23T06:54:40.630Z,94470.03
2022-12-23T06:57:07.150Z,94462.72
2022-12-23T06:59:33.841Z,94476.81
2022-12-23T07:02:00.480Z,94488.63
2022-12-23T07:04:26.976Z,94492.50
2022-12-23T07:06:53.314Z,94493.56
2022-12-23T07:09:19.725Z,94508.41
2022-12-23T07:11:46.117Z,94507.13
2022-12-23T07:14:12.871Z,94507.94
2022-12-23T07:16:50.763Z,94502.41
2022-12-23T07:19:18.682Z,94499.19
2022-12-23T07:21:45.263Z,94487.97
2022-12-23T07:24:11.714Z,94480.44
2022-12-23T07:26:38.088Z,94482.28
2022-12-23T07:29:04.989Z,94482.94
2022-12-23T07:31:31.398Z,94480.91
2022-12-23T07:33:57.797Z,94477.22
2022-12-23T07:36:24.816Z,94481.91
2022-12-23T07:38:52.633Z,94481.28
2022-12-23T07:41:19.421Z,94485.00
2022-12-23T07:43:45.817Z,94493.56
2022-12-23T07:46:12.511Z,94499.50
2022-12-23T07:48:39.137Z,94486.84
2022-12-23T07:51:05.573Z,94487.78
2022-12-23T07:53:32.124Z,94489.84
2022-12-23T07:55:58.495Z,94491.25
2022-12-23T07:58:25.039Z,94493.13
2022-12-23T08:00:53.874Z,94499.44
2022-12-23T08:03:23.836Z,94496.41
2022-12-23T08:05:51.013Z,94496.47
2022-12-23T08:08:17.801Z,94499.69
2022-12-23T08:10:48.343Z,94485.44
2022-12-23T08:13:18.649Z,94489.94
2022-12-23T08:15:45.151Z,94488.16
2022-12-23T08:18:11.948Z,94499.31
2022-12-23T08:20:38.509Z,94498.94
2022-12-23T08:23:04.906Z,94497.88
2022-12-23T08:25:31.732Z,94491.56
2022-12-23T08:27:59.335Z,94490.72
2022-12-23T08:30:25.695Z,94489.91
2022-12-23T08:32:52.294Z,94485.88
2022-12-23T08:35:18.890Z,94486.28
2022-12-23T08:37:46.289Z,94483.22
2022-12-23T08:40:15.153Z,94486.72
2022-12-23T08:42:41.547Z,94487.34
2022-12-23T08:45:08.039Z,94492.25
2022-12-23T08:47:34.498Z,94495.06
2022-12-23T08:50:00.865Z,94497.13
2022-12-23T08:52:27.261Z,94497.78
2022-12-23T08:54:54.624Z,94509.59
2022-12-23T08:57:20.995Z,94503.22
2022-12-23T08:59:47.494Z,94507.31
2022-12-23T09:02:13.963Z,94512.44
2022-12-23T09:04:41.591Z,94509.59
2022-12-23T09:07:07.961Z,94507.72
2022-12-23T09:09:35.363Z,94500.19
2022-12-23T09:12:02.090Z,94499.72
2022-12-23T09:14:28.679Z,94502.53
2022-12-23T09:16:55.356Z,94499.13
2022-12-23T09:19:21.752Z,94505.41
2022-12-23T09:21:48.136Z,94517.72
2022-12-23T09:24:14.502Z,94522.44
2022-12-23T09:26:41.252Z,94526.94
2022-12-23T09:29:07.673Z,94526.34
2022-12-23T09:31:37.343Z,94535.69
2022-12-23T09:34:04.358Z,94519.38
2022-12-23T09:36:30.739Z,94532.63
2022-12-23T09:38:57.139Z,94522.84
2022-12-23T09:41:23.508Z,94529.19
2022-12-23T09:43:50.180Z,94528.56
2022-12-23T09:46:16.646Z,94534.72
2022-12-23T09:48:43.101Z,94526.91
2022-12-23T09:51:09.426Z,94524.44
2022-12-23T09:53:36.826Z,94514.50
2022-12-23T09:56:04.233Z,94520.63
2022-12-23T09:58:30.798Z,94520.34
2022-12-23T10:00:58.044Z,94525.47
2022-12-23T10:03:24.561Z,94508.38
2022-12-23T10:05:51.212Z,94522.47
2022-12-23T10:08:17.593Z,94516.78
2022-12-23T10:10:44.166Z,94514.91
2022-12-23T10:13:10.611Z,94524.31
2022-12-23T10:15:37.080Z,94525.56
2022-12-23T10:18:03.463Z,94522.75
2022-12-23T10:20:29.876Z,94526.41
2022-12-23T10:22:56.370Z,94527.84
2022-12-23T10:25:22.778Z,94531.31
2022-12-23T10:27:49.141Z,94526.78
2022-12-23T10:30:42.590Z,94521.09
2022-12-23T10:33:02.433Z,94518.19
2022-12-23T10:35:29.277Z,94513.50
2022-12-23T10:37:55.619Z,94513.34
2022-12-23T10:40:29.242Z,94504.69
2022-12-23T10:42:55.586Z,94512.47
2022-12-23T10:45:22.492Z,94519.19
2022-12-23T10:47:50.060Z,94505.13
2022-12-23T10:50:16.505Z,94493.75
2022-12-23T10:52:43.017Z,94498.25
2022-12-23T10:55:09.411Z,94494.56
2022-12-23T10:57:35.786Z,94477.03
2022-12-23T11:00:03.181Z,94479.88
2022-12-23T11:02:30.130Z,94484.59
2022-12-23T11:04:56.705Z,94500.72
2022-12-23T11:10:09.528Z,94485.41
2022-12-23T11:12:40.548Z,94489.91
2022-12-23T11:15:08.730Z,94494.56
2022-12-23T11:17:35.744Z,94492.53
2022-12-23T11:20:03.152Z,94492.34
2022-12-23T11:22:29.795Z,94482.75
2022-12-23T11:24:56.556Z,94487.88
2022-12-23T11:27:23.075Z,94477.03
2022-12-23T11:29:49.404Z,94477.03
2022-12-23T11:32:15.960Z,94500.13
2022-12-23T11:34:43.401Z,94497.84
2022-12-23T11:37:09.845Z,94487.84
2022-12-23T11:39:37.238Z,94481.13
2022-12-23T11:42:03.723Z,94496.44
2022-12-23T11:44:30.276Z,94493.75
2022-12-23T11:46:57.489Z,94499.81
2022-12-23T11:49:23.877Z,94499.63
2022-12-23T11:51:50.600Z,94500.59
2022-12-23T11:54:16.931Z,94498.56
2022-12-23T11:56:45.065Z,94496.91
2022-12-23T11:59:11.611Z,94493.63
2022-12-23T12:01:39.022Z,94494.44
2022-12-23T12:04:05.487Z,94505.06
2022-12-23T12:06:34.650Z,94499.94
2022-12-23T12:09:01.024Z,94487.88
2022-12-23T12:11:27.416Z,94486.66
2022-12-23T12:13:53.791Z,94499.69
2022-12-23T12:16:20.195Z,94495.03
2022-12-23T12:18:52.008Z,94487.91
2022-12-23T12:21:22.817Z,94482.59
2022-12-23T12:23:50.760Z,94500.97
2022-12-23T12:26:25.522Z,94483.41
2022-12-23T12:28:53.357Z,94477.91
2022-12-23T12:31:22.235Z,94473.19
2022-12-23T12:33:48.690Z,94486.47
2022-12-23T12:36:16.324Z,94482.41
2022-12-23T12:38:43.751Z,94489.94
2022-12-23T12:41:12.152Z,94484.66
2022-12-23T12:43:39.591Z,94486.28
2022-12-23T12:46:13.582Z,94490.53
2022-12-23T12:48:40.015Z,94482.38
2022-12-23T12:51:06.697Z,94490.38
2022-12-23T12:53:33.070Z,94494.81
2022-12-23T12:56:00.268Z,94480.50
2022-12-23T12:58:26.863Z,94481.28
2022-12-23T13:00:53.679Z,94491.09
2022-12-23T13:03:20.585Z,94485.41
2022-12-23T13:05:53.523Z,94478.25
2022-12-23T13:08:23.345Z,94471.94
2022-12-23T13:10:49.717Z,94475.81
2022-12-23T13:13:16.407Z,94478.03
2022-12-23T13:15:43.008Z,94461.94
2022-12-23T13:18:09.383Z,94463.19
2022-12-23T13:20:36.261Z,94473.97
2022-12-23T13:23:27.003Z,94469.09
2022-12-23T13:25:49.695Z,94475.38
2022-12-23T13:28:16.422Z,94463.34
2022-12-23T13:30:44.274Z,94450.34
2022-12-23T13:33:10.830Z,94466.06
2022-12-23T13:35:37.256Z,94467.47
2022-12-23T13:38:04.197Z,94467.06
2022-12-23T13:40:30.999Z,94466.25
2022-12-23T13:42:57.761Z,94475.03
2022-12-23T13:45:24.536Z,94475.66
2022-12-23T13:47:50.929Z,94478.75
2022-12-23T13:50:18.598Z,94471.78
2022-12-23T13:52:45.099Z,94485.44
2022-12-23T13:55:11.487Z,94478.47
2022-12-23T13:57:39.071Z,94490.09
2022-12-23T14:00:07.657Z,94499.66
2022-12-23T14:02:34.406Z,94492.97
2022-12-23T14:05:01.006Z,94482.19
2022-12-23T14:07:27.798Z,94482.97
2022-12-23T14:09:54.618Z,94485.69
2022-12-23T14:12:21.040Z,94473.69
2022-12-23T14:14:47.569Z,94487.97
2022-12-23T14:17:14.026Z,94479.38
2022-12-23T14:19:40.766Z,94485.31
2022-12-23T14:22:07.234Z,94480.38
2022-12-23T14:24:34.588Z,94456.53
2022-12-23T14:27:01.073Z,94472.88
2022-12-23T14:29:27.509Z,94478.78
2022-12-23T14:31:53.997Z,94472.66
2022-12-23T14:34:20.424Z,94483.88
2022-12-23T14:36:47.032Z,94482.25
2022-12-23T14:39:17.026Z,94479.78
2022-12-23T14:41:43.469Z,94485.28
2022-12-23T14:44:10.011Z,94479.59
2022-12-23T14:46:36.988Z,94481.25
2022-12-23T14:49:36.773Z,94473.28
2022-12-23T14:51:52.317Z,94476.94
2022-12-23T14:54:19.437Z,94478.19
2022-12-23T14:56:45.808Z,94470.22
2022-12-23T15:01:52.451Z,94473.69
2022-12-23T15:04:19.475Z,94488.75
2022-12-23T15:06:49.958Z,94479.75
2022-12-23T15:09:16.580Z,94490.97
2022-12-23T15:11:43.410Z,94487.75
2022-12-23T15:14:09.853Z,94491.97
2022-12-23T15:16:37.323Z,94501.72
2022-12-23T15:19:03.935Z,94496.41
2022-12-23T15:21:30.810Z,94510.69
2022-12-23T15:23:57.310Z,94515.75
2022-12-23T15:26:23.963Z,94506.97
2022-12-23T15:28:50.735Z,94505.56
2022-12-23T15:31:19.450Z,94514.56
2022-12-23T15:34:03.402Z,94509.84
2022-12-23T15:36:31.792Z,94515.16
2022-12-23T15:38:58.857Z,94524.78
2022-12-23T15:41:25.238Z,94522.28
2022-12-23T15:43:52.796Z,94526.50
2022-12-23T15:46:25.058Z,94534.72
2022-12-23T15:48:55.453Z,94530.66
2022-12-23T15:51:49.620Z,94529.06
2022-12-23T15:54:08.687Z,94535.13
2022-12-23T15:56:35.570Z,94530.31
2022-12-23T15:59:02.441Z,94526.41
2022-12-23T16:01:29.135Z,94534.59
2022-12-23T16:03:55.706Z,94531.88
2022-12-23T16:06:23.283Z,94545.94
2022-12-23T16:08:52.695Z,94535.16
2022-12-23T16:11:19.237Z,94546.34
2022-12-23T16:13:49.326Z,94532.09
2022-12-23T16:16:19.250Z,94531.66
2022-12-23T16:18:49.950Z,94521.84
2022-12-23T16:21:18.648Z,94514.75
2022-12-23T16:23:45.389Z,94509.81
2022-12-23T16:26:12.354Z,94502.69
2022-12-23T16:28:38.810Z,94518.34
2022-12-23T16:31:05.313Z,94529.25
2022-12-23T16:33:33.847Z,94522.13
2022-12-23T16:36:07.770Z,94532.50
2022-12-23T16:38:34.354Z,94515.19
2022-12-23T16:41:01.029Z,94504.53
2022-12-23T16:43:28.549Z,94501.69
2022-12-23T16:46:02.042Z,94494.38
2022-12-23T16:48:28.751Z,94487.03
2022-12-23T16:50:56.156Z,94482.72
2022-12-23T16:53:22.620Z,94487.25
2022-12-23T16:55:56.646Z,94470.34
2022-12-23T16:58:27.276Z,94497.47
2022-12-23T17:00:53.705Z,94474.84
2022-12-23T17:03:20.130Z,94468.97
2022-12-23T17:05:49.280Z,94474.28
2022-12-23T17:08:15.995Z,94467.75
2022-12-23T17:10:42.571Z,94465.50
2022-12-23T17:13:09.304Z,94470.81
2022-12-23T17:15:37.072Z,94469.22
2022-12-23T17:18:03.540Z,94465.72
2022-12-23T17:20:30.110Z,94476.97
2022-12-23T17:22:56.565Z,94479.00
2022-12-23T17:25:26.249Z,94496.56
2022-12-23T17:27:53.365Z,94500.44
2022-12-23T17:30:19.783Z,94493.09
2022-12-23T17:32:46.881Z,94476.34
2022-12-23T17:35:13.360Z,94474.91
2022-12-23T17:37:39.776Z,94481.81
2022-12-23T17:40:06.159Z,94483.03
2022-12-23T17:42:32.528Z,94499.31
2022-12-23T17:44:59.130Z,94510.69
2022-12-23T17:47:25.519Z,94506.22
2022-12-23T17:49:54.508Z,94510.69
2022-12-23T17:52:20.962Z,94514.00
2022-12-23T17:54:47.424Z,94501.13
2022-12-23T17:57:17.582Z,94497.09
2022-12-23T17:59:47.694Z,94506.66
2022-12-23T18:02:14.663Z,94510.13
2022-12-23T18:04:41.039Z,94533.75
2022-12-23T18:07:07.743Z,94531.13
2022-12-23T18:09:34.317Z,94537.88
2022-12-23T18:12:00.717Z,94549.50
2022-12-23T18:14:27.133Z,94558.94
2022-12-23T18:16:54.474Z,94571.34
2022-12-23T18:19:21.323Z,94582.22
2022-12-23T18:21:48.367Z,94591.38
2022-12-23T18:24:15.072Z,94604.03
2022-12-23T18:26:41.869Z,94617.81
2022-12-23T18:29:08.449Z,94621.91
2022-12-23T18:31:34.887Z,94635.56
2022-12-23T18:34:02.189Z,94659.22
2022-12-23T18:36:28.875Z,94665.69
2022-12-23T18:38:57.849Z,94671.00
2022-12-23T18:41:25.320Z,94671.31
2022-12-23T18:43:51.838Z,94668.50
2022-12-23T18:46:18.455Z,94671.31
2022-12-23T18:48:45.262Z,94680.91
2022-12-23T18:51:12.079Z,94666.69
2022-12-23T18:53:38.968Z,94658.31
2022-12-23T18:56:05.778Z,94661.34
2022-12-23T18:58:34.274Z,94657.56
2022-12-23T19:01:01.095Z,94658.38
2022-12-23T19:03:28.239Z,94657.97
2022-12-23T19:05:55.498Z,94664.25
2022-12-23T19:08:26.714Z,94669.91
2022-12-23T19:10:54.222Z,94677.22
2022-12-23T19:13:23.047Z,94673.97
2022-12-23T19:15:49.700Z,94669.88
2022-12-23T19:18:16.450Z,94658.06
2022-12-23T19:20:44.867Z,94654.00
2022-12-23T19:23:11.240Z,94635.25
2022-12-23T19:25:41.566Z,94627.16
2022-12-23T19:28:08.518Z,94606.72
2022-12-23T19:30:35.262Z,94603.53
2022-12-23T19:33:02.067Z,94609.28
2022-12-23T19:35:28.872Z,94609.69
2022-12-23T19:37:55.304Z,94599.34
2022-12-23T19:40:21.820Z,94586.94
2022-12-23T19:42:48.519Z,94592.63
2022-12-23T19:45:15.253Z,94598.91
2022-12-23T19:47:41.673Z,94609.13
2022-12-23T20:14:29.063Z,94618.00
2022-12-23T20:17:00.868Z,94591.50
2022-12-23T20:19:27.700Z,94583.00
2022-12-23T20:27:19.132Z,94600.34
2022-12-23T20:29:49.104Z,94593.19
2022-12-23T20:32:15.441Z,94605.84
2022-12-23T20:34:44.511Z,94600.06
2022-12-23T21:23:09.620Z,94587.63
2022-12-23T22:49:17.429Z,94645.84
2022-12-23T22:51:46.049Z,94627.91
2022-12-23T23:29:16.400Z,94679.44
2022-12-23T23:37:01.933Z,94687.19
2022-12-23T23:39:28.320Z,94688.69
2022-12-23T23:41:54.684Z,94703.38
2022-12-23T23:44:21.054Z,94697.22
2022-12-23T23:46:47.452Z,94676.22
2022-12-23T23:49:13.859Z,94682.56
2022-12-23T23:51:40.246Z,94680.56
2022-12-23T23:54:06.619Z,94686.47
2022-12-23T23:56:38.195Z,94696.25
2022-12-23T23:59:05.615Z,94715.34
